createdAt,value
2023-01-07T00:00:45.800Z,0.00
2023-01-07T00:01:45.721Z,0.00
2023-01-07T00:02:45.743Z,0.00
2023-01-07T00:03:45.768Z,0.00
2023-01-07T00:04:45.674Z,0.00
2023-01-07T00:05:45.677Z,0.00
2023-01-07T00:06:45.652Z,0.00
2023-01-07T00:07:45.752Z,0.00
2023-01-07T00:08:45.633Z,0.00
2023-01-07T00:09:45.646Z,0.00
2023-01-07T00:10:45.609Z,0.00
2023-01-07T00:11:45.611Z,0.00
2023-01-07T00:12:45.588Z,0.00
2023-01-07T00:13:45.600Z,0.00
2023-01-07T00:14:45.565Z,0.00
2023-01-07T00:15:45.648Z,0.00
2023-01-07T00:16:45.540Z,0.00
2023-01-07T00:17:45.540Z,0.00
2023-01-07T00:18:45.531Z,0.00
2023-01-07T00:19:45.532Z,0.00
2023-01-07T00:20:45.515Z,0.00
2023-01-07T00:21:45.550Z,0.00
2023-01-07T00:22:45.478Z,0.00
2023-01-07T00:23:45.578Z,0.00
2023-01-07T00:24:45.460Z,0.00
2023-01-07T00:25:45.456Z,0.00
2023-01-07T00:26:45.438Z,0.00
2023-01-07T00:27:45.460Z,0.00
2023-01-07T00:28:45.415Z,0.00
2023-01-07T00:29:45.417Z,0.00
2023-01-07T00:30:45.406Z,0.00
2023-01-07T00:31:45.439Z,0.00
2023-01-07T00:32:45.378Z,0.00
2023-01-07T00:33:45.390Z,0.00
2023-01-07T00:34:45.350Z,0.00
2023-01-07T00:35:45.335Z,0.00
2023-01-07T00:36:45.362Z,0.00
2023-01-07T00:37:45.327Z,0.00
2023-01-07T00:38:45.310Z,0.00
2023-01-07T00:39:45.412Z,0.00
2023-01-07T00:40:45.285Z,0.00
2023-01-07T00:41:45.283Z,0.00
2023-01-07T00:42:45.263Z,0.00
2023-01-07T00:43:45.249Z,0.00
2023-01-07T00:44:45.246Z,0.00
2023-01-07T00:45:45.269Z,0.00
2023-01-07T00:46:45.308Z,0.00
2023-01-07T00:47:45.216Z,0.00
2023-01-07T00:48:45.201Z,0.00
2023-01-07T00:49:45.184Z,0.00
2023-01-07T00:50:45.177Z,0.00
2023-01-07T00:51:45.193Z,0.00
2023-01-07T00:52:45.158Z,0.00
2023-01-07T00:53:45.154Z,0.00
2023-01-07T00:54:45.135Z,0.00
2023-01-07T00:55:45.250Z,0.00
2023-01-07T00:56:45.111Z,0.00
2023-01-07T00:57:45.144Z,0.00
2023-01-07T00:58:45.103Z,0.00
2023-01-07T00:59:45.080Z,0.00
2023-01-07T01:00:45.112Z,0.00
2023-01-07T01:01:45.251Z,0.00
2023-01-07T01:02:45.103Z,0.00
2023-01-07T01:03:45.069Z,0.00
2023-01-07T01:04:45.049Z,0.00
2023-01-07T01:05:45.023Z,0.00
2023-01-07T01:06:45.008Z,0.00
2023-01-07T01:07:44.990Z,0.00
2023-01-07T01:08:44.991Z,0.00
2023-01-07T01:09:44.999Z,0.00
2023-01-07T01:10:44.960Z,0.00
2023-01-07T01:11:45.063Z,0.00
2023-01-07T01:12:44.940Z,0.00
2023-01-07T01:13:44.937Z,0.00
2023-01-07T01:14:44.928Z,0.00
2023-01-07T01:15:44.932Z,0.00
2023-01-07T01:16:44.944Z,0.00
2023-01-07T01:17:44.884Z,0.00
2023-01-07T01:18:44.889Z,0.00
2023-01-07T01:19:44.859Z,0.00
2023-01-07T01:20:44.856Z,0.00
2023-01-07T01:21:44.870Z,0.00
2023-01-07T01:22:44.834Z,0.00
2023-01-07T01:23:44.834Z,0.00
2023-01-07T01:24:44.809Z,0.00
2023-01-07T01:25:44.797Z,0.00
2023-01-07T01:26:44.790Z,0.00
2023-01-07T01:27:44.896Z,0.00
2023-01-07T01:28:44.777Z,0.00
2023-01-07T01:29:44.752Z,0.00
2023-01-07T01:30:44.757Z,0.00
2023-01-07T01:31:44.772Z,0.00
2023-01-07T01:32:44.723Z,0.00
2023-01-07T01:33:44.740Z,0.00
2023-01-07T01:34:44.711Z,0.00
2023-01-07T01:35:44.688Z,0.00
2023-01-07T01:36:44.693Z,0.00
2023-01-07T01:37:44.668Z,0.00
2023-01-07T01:38:44.668Z,0.00
2023-01-07T01:39:44.682Z,0.00
2023-01-07T01:40:44.643Z,0.00
2023-01-07T01:41:44.624Z,0.00
2023-01-07T01:42:44.615Z,0.00
2023-01-07T01:43:44.635Z,0.00
2023-01-07T01:44:44.605Z,0.00
2023-01-07T01:45:44.610Z,0.00
2023-01-07T01:46:44.639Z,0.00
2023-01-07T01:47:44.557Z,0.00
2023-01-07T01:48:44.565Z,0.00
2023-01-07T01:49:44.543Z,0.00
2023-01-07T01:50:44.528Z,0.00
2023-01-07T01:51:44.557Z,0.00
2023-01-07T01:52:45.718Z,0.00
2023-01-07T01:53:44.504Z,0.00
2023-01-07T01:54:44.590Z,0.00
2023-01-07T01:55:44.500Z,0.00
2023-01-07T01:56:44.487Z,0.00
2023-01-07T01:57:44.504Z,0.00
2023-01-07T01:58:44.452Z,0.00
2023-01-07T01:59:44.570Z,0.00
2023-01-07T02:00:44.521Z,0.00
2023-01-07T02:01:44.643Z,0.00
2023-01-07T02:02:44.469Z,0.00
2023-01-07T02:03:44.421Z,0.00
2023-01-07T02:04:44.401Z,0.00
2023-01-07T02:05:44.372Z,0.00
2023-01-07T02:06:44.356Z,0.00
2023-01-07T02:07:44.346Z,0.00
2023-01-07T02:08:44.343Z,0.00
2023-01-07T02:09:44.363Z,0.00
2023-01-07T02:10:44.323Z,0.00
2023-01-07T02:11:44.316Z,0.00
2023-01-07T02:12:44.303Z,0.00
2023-01-07T02:13:44.278Z,0.00
2023-01-07T02:14:44.273Z,0.00
2023-01-07T02:15:44.383Z,0.00
2023-01-07T02:16:44.379Z,0.00
2023-01-07T02:17:44.234Z,0.00
2023-01-07T02:18:44.246Z,0.00
2023-01-07T02:19:44.215Z,0.00
2023-01-07T02:20:44.209Z,0.00
2023-01-07T02:21:44.248Z,0.00
2023-01-07T02:22:44.188Z,0.00
2023-01-07T02:23:44.170Z,0.00
2023-01-07T02:24:44.170Z,0.00
2023-01-07T02:25:44.159Z,0.00
2023-01-07T02:26:44.163Z,0.00
2023-01-07T02:27:44.165Z,0.00
2023-01-07T02:28:44.119Z,0.00
2023-01-07T02:29:44.108Z,0.00
2023-01-07T02:30:44.104Z,0.00
2023-01-07T02:31:44.283Z,0.00
2023-01-07T02:32:44.099Z,0.00
2023-01-07T02:33:44.085Z,0.00
2023-01-07T02:34:44.066Z,0.00
2023-01-07T02:35:44.045Z,0.00
2023-01-07T02:36:44.035Z,0.00
2023-01-07T02:37:44.029Z,0.00
2023-01-07T02:38:44.120Z,0.00
2023-01-07T02:39:44.035Z,0.00
2023-01-07T02:40:43.990Z,0.00
2023-01-07T02:41:43.980Z,0.00
2023-01-07T02:42:43.965Z,0.00
2023-01-07T02:43:43.960Z,0.00
2023-01-07T02:44:43.954Z,0.00
2023-01-07T02:45:44.016Z,0.00
2023-01-07T02:46:43.924Z,0.00
2023-01-07T02:47:43.936Z,0.00
2023-01-07T02:48:43.916Z,0.00
2023-01-07T02:49:43.905Z,0.00
2023-01-07T02:50:43.879Z,0.00
2023-01-07T02:51:43.898Z,0.00
2023-01-07T02:52:43.857Z,0.00
2023-01-07T02:53:43.851Z,0.00
2023-01-07T02:54:43.848Z,0.00
2023-01-07T02:55:43.829Z,0.00
2023-01-07T02:56:43.817Z,0.00
2023-01-07T02:57:43.834Z,0.00
2023-01-07T02:58:43.800Z,0.00
2023-01-07T02:59:43.789Z,0.00
2023-01-07T03:00:43.807Z,0.00
2023-01-07T03:01:43.973Z,0.00
2023-01-07T03:02:43.761Z,0.00
2023-01-07T03:03:43.942Z,0.00
2023-01-07T03:04:43.726Z,0.00
2023-01-07T03:05:43.721Z,0.00
2023-01-07T03:06:43.820Z,0.00
2023-01-07T03:07:43.708Z,0.00
2023-01-07T03:08:43.690Z,0.00
2023-01-07T03:09:43.706Z,0.00
2023-01-07T03:10:43.667Z,0.00
2023-01-07T03:11:43.659Z,0.00
2023-01-07T03:12:43.661Z,0.00
2023-01-07T03:13:43.639Z,0.00
2023-01-07T03:14:43.628Z,0.00
2023-01-07T03:15:43.647Z,0.00
2023-01-07T03:16:43.609Z,0.00
2023-01-07T03:17:43.596Z,0.00
2023-01-07T03:18:43.596Z,0.00
2023-01-07T03:19:43.686Z,0.00
2023-01-07T03:20:43.555Z,0.00
2023-01-07T03:21:43.579Z,0.00
2023-01-07T03:22:43.534Z,0.00
2023-01-07T03:23:43.527Z,0.00
2023-01-07T03:24:43.524Z,0.00
2023-01-07T03:25:43.508Z,0.00
2023-01-07T03:26:43.514Z,0.00
2023-01-07T03:27:43.531Z,0.00
2023-01-07T03:28:43.472Z,0.00
2023-01-07T03:29:43.461Z,0.00
2023-01-07T03:30:43.461Z,0.00
2023-01-07T03:31:43.498Z,0.00
2023-01-07T03:32:43.428Z,0.00
2023-01-07T03:33:43.447Z,0.00
2023-01-07T03:34:43.410Z,0.00
2023-01-07T03:35:43.532Z,0.00
2023-01-07T03:36:43.385Z,0.00
2023-01-07T03:37:43.372Z,0.00
2023-01-07T03:38:43.366Z,0.00
2023-01-07T03:39:43.382Z,0.00
2023-01-07T03:40:43.457Z,0.00
2023-01-07T03:41:43.328Z,0.00
2023-01-07T03:42:43.325Z,0.00
2023-01-07T03:43:43.307Z,0.00
2023-01-07T03:44:43.307Z,0.00
2023-01-07T03:45:43.371Z,0.00
2023-01-07T03:46:43.290Z,0.00
2023-01-07T03:47:43.284Z,0.00
2023-01-07T03:48:43.255Z,0.00
2023-01-07T03:49:43.254Z,0.00
2023-01-07T03:50:43.238Z,0.00
2023-01-07T03:51:43.339Z,0.00
2023-01-07T03:52:43.235Z,0.00
2023-01-07T03:53:43.203Z,0.00
2023-01-07T03:54:43.194Z,0.00
2023-01-07T03:55:43.179Z,0.00
2023-01-07T03:56:43.172Z,0.00
2023-01-07T03:57:43.206Z,0.00
2023-01-07T03:58:43.162Z,0.00
2023-01-07T03:59:43.131Z,0.00
2023-01-07T04:00:43.158Z,0.00
2023-01-07T04:01:43.258Z,0.00
2023-01-07T04:02:43.110Z,0.00
2023-01-07T04:03:43.130Z,0.00
2023-01-07T04:04:43.147Z,0.00
2023-01-07T04:05:43.086Z,0.00
2023-01-07T04:06:43.076Z,0.00
2023-01-07T04:07:43.201Z,0.00
2023-01-07T04:08:43.042Z,0.00
2023-01-07T04:09:43.059Z,0.00
2023-01-07T04:10:43.052Z,0.00
2023-01-07T04:11:43.007Z,0.00
2023-01-07T04:12:43.002Z,0.00
2023-01-07T04:13:42.989Z,0.00
2023-01-07T04:14:43.003Z,0.00
2023-01-07T04:15:42.959Z,0.00
2023-01-07T04:16:43.017Z,0.00
2023-01-07T04:17:42.971Z,0.00
2023-01-07T04:18:42.936Z,0.00
2023-01-07T04:19:42.917Z,0.00
2023-01-07T04:20:42.919Z,0.00
2023-01-07T04:21:42.909Z,0.00
2023-01-07T04:22:42.927Z,0.00
2023-01-07T04:23:42.990Z,0.00
2023-01-07T04:24:42.870Z,0.00
2023-01-07T04:25:42.852Z,0.00
2023-01-07T04:26:42.876Z,0.00
2023-01-07T04:27:42.834Z,0.00
2023-01-07T04:28:42.858Z,0.00
2023-01-07T04:29:42.813Z,0.00
2023-01-07T04:30:42.918Z,0.00
2023-01-07T04:31:42.788Z,0.00
2023-01-07T04:32:42.780Z,0.00
2023-01-07T04:33:42.779Z,0.00
2023-01-07T04:34:42.804Z,0.00
2023-01-07T04:35:42.744Z,0.00
2023-01-07T04:36:42.744Z,0.00
2023-01-07T04:37:42.735Z,0.00
2023-01-07T04:38:42.718Z,0.00
2023-01-07T04:39:42.720Z,0.00
2023-01-07T04:40:42.726Z,0.00
2023-01-07T04:41:42.683Z,0.00
2023-01-07T04:42:42.671Z,0.00
2023-01-07T04:43:42.673Z,0.00
2023-01-07T04:44:42.650Z,0.00
2023-01-07T04:45:42.633Z,0.00
2023-01-07T04:46:42.668Z,0.00
2023-01-07T04:47:42.612Z,0.00
2023-01-07T04:48:42.618Z,0.00
2023-01-07T04:49:42.601Z,0.00
2023-01-07T04:50:42.586Z,0.00
2023-01-07T04:51:42.572Z,0.00
2023-01-07T04:52:42.591Z,0.00
2023-01-07T04:53:42.554Z,0.00
2023-01-07T04:54:42.559Z,0.00
2023-01-07T04:55:43.914Z,0.00
2023-01-07T04:56:42.520Z,0.00
2023-01-07T04:57:42.513Z,0.00
2023-01-07T04:58:42.509Z,0.00
2023-01-07T04:59:42.486Z,0.00
2023-01-07T05:00:42.500Z,0.00
2023-01-07T05:01:42.723Z,0.00
2023-01-07T05:02:42.455Z,0.00
2023-01-07T05:03:42.442Z,0.00
2023-01-07T05:04:42.522Z,0.00
2023-01-07T05:05:42.427Z,0.00
2023-01-07T05:06:42.427Z,0.00
2023-01-07T05:07:42.401Z,0.00
2023-01-07T05:08:42.394Z,0.00
2023-01-07T05:09:42.377Z,0.00
2023-01-07T05:10:42.404Z,0.00
2023-01-07T05:11:42.581Z,0.00
2023-01-07T05:12:42.346Z,0.00
2023-01-07T05:13:42.347Z,0.00
2023-01-07T05:14:42.329Z,0.00
2023-01-07T05:15:42.315Z,0.00
2023-01-07T05:16:42.398Z,0.00
2023-01-07T05:17:42.305Z,0.00
2023-01-07T05:18:42.283Z,0.00
2023-01-07T05:19:42.273Z,0.00
2023-01-07T05:20:42.262Z,0.00
2023-01-07T05:21:42.250Z,0.00
2023-01-07T05:22:42.277Z,0.00
2023-01-07T05:23:42.243Z,0.00
2023-01-07T05:24:42.248Z,0.00
2023-01-07T05:25:42.206Z,0.00
2023-01-07T05:26:42.221Z,0.00
2023-01-07T05:27:42.310Z,0.00
2023-01-07T05:28:42.201Z,0.00
2023-01-07T05:29:42.176Z,0.00
2023-01-07T05:30:42.169Z,0.00
2023-01-07T05:31:42.140Z,0.00
2023-01-07T05:32:42.133Z,0.00
2023-01-07T05:33:42.128Z,0.00
2023-01-07T05:34:42.177Z,0.00
2023-01-07T05:35:42.109Z,0.00
2023-01-07T05:36:42.091Z,0.00
2023-01-07T05:37:42.073Z,0.00
2023-01-07T05:38:42.070Z,0.00
2023-01-07T05:39:42.067Z,0.00
2023-01-07T05:40:42.190Z,0.00
2023-01-07T05:41:42.031Z,0.00
2023-01-07T05:42:42.023Z,0.00
2023-01-07T05:43:42.129Z,0.00
2023-01-07T05:44:42.004Z,0.00
2023-01-07T05:45:41.992Z,0.00
2023-01-07T05:46:42.098Z,0.00
2023-01-07T05:47:41.980Z,0.00
2023-01-07T05:48:41.964Z,0.00
2023-01-07T05:49:41.953Z,0.00
2023-01-07T05:50:41.948Z,0.00
2023-01-07T05:51:41.950Z,0.00
2023-01-07T05:52:41.918Z,0.00
2023-01-07T05:53:41.904Z,0.00
2023-01-07T05:54:41.928Z,0.00
2023-01-07T05:55:41.994Z,0.00
2023-01-07T05:56:41.871Z,0.00
2023-01-07T05:57:41.859Z,0.00
2023-01-07T05:58:41.855Z,0.00
2023-01-07T05:59:41.876Z,0.00
2023-01-07T06:00:41.833Z,0.00
2023-01-07T06:01:41.827Z,0.00
2023-01-07T06:02:41.815Z,0.00
2023-01-07T06:03:41.887Z,0.00
2023-01-07T06:04:41.875Z,0.00
2023-01-07T06:05:41.823Z,0.00
2023-01-07T06:06:41.769Z,0.00
2023-01-07T06:07:41.767Z,0.00
2023-01-07T06:08:41.745Z,0.00
2023-01-07T06:09:41.753Z,0.00
2023-01-07T06:10:41.723Z,0.00
2023-01-07T06:11:41.733Z,0.00
2023-01-07T06:12:41.702Z,0.00
2023-01-07T06:13:41.693Z,0.00
2023-01-07T06:14:41.682Z,0.00
2023-01-07T06:15:41.833Z,0.00
2023-01-07T06:16:41.659Z,0.00
2023-01-07T06:17:41.670Z,0.00
2023-01-07T06:18:41.655Z,0.00
2023-01-07T06:19:41.623Z,0.00
2023-01-07T06:20:41.644Z,0.00
2023-01-07T06:21:41.624Z,0.00
2023-01-07T06:22:41.595Z,0.00
2023-01-07T06:23:41.654Z,0.00
2023-01-07T06:24:41.582Z,0.00
2023-01-07T06:25:41.570Z,0.00
2023-01-07T06:26:41.557Z,0.00
2023-01-07T06:27:41.554Z,0.00
2023-01-07T06:28:41.531Z,0.00
2023-01-07T06:29:41.535Z,0.00
2023-01-07T06:30:41.509Z,0.00
2023-01-07T06:31:41.617Z,0.00
2023-01-07T06:32:41.509Z,0.00
2023-01-07T06:33:41.476Z,0.00
2023-01-07T06:34:41.464Z,0.00
2023-01-07T06:35:41.479Z,0.00
2023-01-07T06:36:41.444Z,0.00
2023-01-07T06:37:41.429Z,0.00
2023-01-07T06:38:41.439Z,0.00
2023-01-07T06:39:41.411Z,0.00
2023-01-07T06:40:41.407Z,0.00
2023-01-07T06:41:41.423Z,0.00
2023-01-07T06:42:41.378Z,0.00
2023-01-07T06:43:41.373Z,0.00
2023-01-07T06:44:41.377Z,0.00
2023-01-07T06:45:41.762Z,0.00
2023-01-07T06:46:41.382Z,0.00
2023-01-07T06:47:41.448Z,0.00
2023-01-07T06:48:41.316Z,0.00
2023-01-07T06:49:41.316Z,0.00
2023-01-07T06:50:41.292Z,0.00
2023-01-07T06:51:41.279Z,5.62
2023-01-07T06:52:41.281Z,5.62
2023-01-07T06:53:41.292Z,5.62
2023-01-07T06:54:41.251Z,5.62
2023-01-07T06:55:41.244Z,5.62
2023-01-07T06:56:41.238Z,5.62
2023-01-07T06:57:41.216Z,5.62
2023-01-07T06:58:41.212Z,5.62
2023-01-07T06:59:41.226Z,5.62
2023-01-07T07:00:41.180Z,5.62
2023-01-07T07:01:41.312Z,5.62
2023-01-07T07:02:41.240Z,11.25
2023-01-07T07:03:41.280Z,11.25
2023-01-07T07:04:41.140Z,11.25
2023-01-07T07:05:41.168Z,11.25
2023-01-07T07:06:41.134Z,11.25
2023-01-07T07:07:41.109Z,11.25
2023-01-07T07:08:41.098Z,11.25
2023-01-07T07:09:41.086Z,16.88
2023-01-07T07:10:41.091Z,16.88
2023-01-07T07:11:41.114Z,16.88
2023-01-07T07:12:41.079Z,16.88
2023-01-07T07:13:41.045Z,16.88
2023-01-07T07:14:41.044Z,22.50
2023-01-07T07:15:41.051Z,22.50
2023-01-07T07:16:41.009Z,22.50
2023-01-07T07:17:41.037Z,28.12
2023-01-07T07:18:40.987Z,28.12
2023-01-07T07:19:41.113Z,28.12
2023-01-07T07:20:40.967Z,33.75
2023-01-07T07:21:40.957Z,33.75
2023-01-07T07:22:40.944Z,33.75
2023-01-07T07:23:41.077Z,39.38
2023-01-07T07:24:40.924Z,39.38
2023-01-07T07:25:40.919Z,45.00
2023-01-07T07:26:40.901Z,45.00
2023-01-07T07:27:40.893Z,45.00
2023-01-07T07:28:40.884Z,50.62
2023-01-07T07:29:40.928Z,50.62
2023-01-07T07:30:45.492Z,50.62
2023-01-07T07:31:41.893Z,56.25
2023-01-07T07:32:40.836Z,56.25
2023-01-07T07:33:40.831Z,56.25
2023-01-07T07:34:40.816Z,61.88
2023-01-07T07:35:40.946Z,61.88
2023-01-07T07:36:40.797Z,61.88
2023-01-07T07:37:40.798Z,67.50
2023-01-07T07:38:40.771Z,67.50
2023-01-07T07:39:40.763Z,67.50
2023-01-07T07:40:40.797Z,67.50
2023-01-07T07:41:40.764Z,73.12
2023-01-07T07:43:11.788Z,73.12
2023-01-07T07:43:41.719Z,73.12
2023-01-07T07:44:40.706Z,73.12
2023-01-07T07:45:40.762Z,78.75
2023-01-07T07:46:42.053Z,78.75
2023-01-07T07:47:40.710Z,78.75
2023-01-07T07:48:40.666Z,84.38
2023-01-07T07:49:40.661Z,84.38
2023-01-07T07:50:40.640Z,84.38
2023-01-07T07:51:40.767Z,84.38
2023-01-07T07:52:40.621Z,90.00
2023-01-07T07:53:40.656Z,90.00
2023-01-07T07:54:40.598Z,90.00
2023-01-07T07:55:40.589Z,95.62
2023-01-07T07:56:40.576Z,95.62
2023-01-07T07:57:40.570Z,95.62
2023-01-07T07:58:40.562Z,95.62
2023-01-07T07:59:40.600Z,95.62
2023-01-07T08:00:40.533Z,95.62
2023-01-07T08:01:40.720Z,95.62
2023-01-07T08:02:40.513Z,101.25
2023-01-07T08:03:40.572Z,101.25
2023-01-07T08:04:40.491Z,101.25
2023-01-07T08:05:40.518Z,101.25
2023-01-07T08:06:40.471Z,106.88
2023-01-07T08:07:40.592Z,106.88
2023-01-07T08:08:40.459Z,106.88
2023-01-07T08:09:40.545Z,106.88
2023-01-07T08:10:40.431Z,106.88
2023-01-07T08:11:40.463Z,106.88
2023-01-07T08:12:40.406Z,106.88
2023-01-07T08:13:40.399Z,106.88
2023-01-07T08:14:42.140Z,112.50
2023-01-07T08:15:40.388Z,112.50
2023-01-07T08:16:40.361Z,112.50
2023-01-07T08:17:40.395Z,112.50
2023-01-07T08:18:40.341Z,118.12
2023-01-07T08:19:40.335Z,118.12
2023-01-07T08:20:40.332Z,118.12
2023-01-07T08:21:40.315Z,118.12
2023-01-07T08:22:40.298Z,118.12
2023-01-07T08:23:40.410Z,118.12
2023-01-07T08:24:40.277Z,118.12
2023-01-07T08:25:40.277Z,118.12
2023-01-07T08:26:40.260Z,118.12
2023-01-07T08:27:40.255Z,118.12
2023-01-07T08:28:40.240Z,118.12
2023-01-07T08:29:40.272Z,118.12
2023-01-07T08:30:40.237Z,118.12
2023-01-07T08:31:40.271Z,118.12
2023-01-07T08:32:40.190Z,118.12
2023-01-07T08:33:40.185Z,118.12
2023-01-07T08:34:40.167Z,118.12
2023-01-07T08:35:40.216Z,118.12
2023-01-07T08:36:40.154Z,118.12
2023-01-07T08:37:40.140Z,118.12
2023-01-07T08:38:40.123Z,118.12
2023-01-07T08:39:40.229Z,118.12
2023-01-07T08:40:40.111Z,123.75
2023-01-07T08:41:40.138Z,123.75
2023-01-07T08:42:40.092Z,123.75
2023-01-07T08:43:40.072Z,123.75
2023-01-07T08:44:40.061Z,123.75
2023-01-07T08:45:40.052Z,123.75
2023-01-07T08:46:40.099Z,123.75
2023-01-07T08:47:40.075Z,129.38
2023-01-07T08:48:40.017Z,129.38
2023-01-07T08:49:40.010Z,129.38
2023-01-07T08:50:40.000Z,123.75
2023-01-07T08:51:39.987Z,123.75
2023-01-07T08:52:39.972Z,129.38
2023-01-07T08:53:40.006Z,129.38
2023-01-07T08:54:39.948Z,129.38
2023-01-07T08:55:40.072Z,129.38
2023-01-07T08:56:39.936Z,129.38
2023-01-07T08:57:39.918Z,129.38
2023-01-07T08:58:39.916Z,129.38
2023-01-07T08:59:39.970Z,129.38
2023-01-07T09:00:39.937Z,129.38
2023-01-07T09:01:40.068Z,129.38
2023-01-07T09:02:39.880Z,129.38
2023-01-07T09:03:39.854Z,135.00
2023-01-07T09:04:39.841Z,135.00
2023-01-07T09:05:39.974Z,135.00
2023-01-07T09:06:39.834Z,140.62
2023-01-07T09:07:39.826Z,140.62
2023-01-07T09:08:39.802Z,140.62
2023-01-07T09:09:39.814Z,140.62
2023-01-07T09:10:39.777Z,140.62
2023-01-07T09:11:39.908Z,140.62
2023-01-07T09:12:39.772Z,140.62
2023-01-07T09:13:39.745Z,140.62
2023-01-07T09:14:39.756Z,140.62
2023-01-07T09:15:39.724Z,140.62
2023-01-07T09:16:39.758Z,140.62
2023-01-07T09:17:39.707Z,146.25
2023-01-07T09:18:39.702Z,146.25
2023-01-07T09:19:39.724Z,151.88
2023-01-07T09:20:39.671Z,151.88
2023-01-07T09:21:39.662Z,151.88
2023-01-07T09:22:39.649Z,151.88
2023-01-07T09:23:39.654Z,151.88
2023-01-07T09:24:39.623Z,151.88
2023-01-07T09:25:39.637Z,151.88
2023-01-07T09:26:39.611Z,151.88
2023-01-07T09:27:39.715Z,151.88
2023-01-07T09:28:39.585Z,151.88
2023-01-07T09:29:39.593Z,151.88
2023-01-07T09:30:39.566Z,157.50
2023-01-07T09:31:39.658Z,157.50
2023-01-07T09:32:39.538Z,146.25
2023-01-07T09:33:39.529Z,146.25
2023-01-07T09:34:39.514Z,146.25
2023-01-07T09:35:39.519Z,146.25
2023-01-07T09:36:39.498Z,146.25
2023-01-07T09:37:39.551Z,146.25
2023-01-07T09:38:39.472Z,146.25
2023-01-07T09:39:39.467Z,146.25
2023-01-07T09:40:39.486Z,146.25
2023-01-07T09:41:39.441Z,146.25
2023-01-07T09:42:39.429Z,151.88
2023-01-07T09:43:58.864Z,151.88
2023-01-07T09:44:40.405Z,213.75
2023-01-07T09:45:39.447Z,601.88
2023-01-07T09:46:39.394Z,1018.12
2023-01-07T09:47:39.388Z,1293.75
2023-01-07T09:48:39.365Z,1243.12
2023-01-07T09:49:39.389Z,1293.75
2023-01-07T09:50:39.342Z,1243.12
2023-01-07T09:51:39.353Z,1215.00
2023-01-07T09:52:39.321Z,1231.88
2023-01-07T09:53:39.326Z,1254.38
2023-01-07T09:54:39.298Z,1327.50
2023-01-07T09:55:39.318Z,1395.00
2023-01-07T09:56:40.302Z,1400.62
2023-01-07T09:57:39.270Z,1411.88
2023-01-07T09:58:39.278Z,1400.62
2023-01-07T09:59:39.384Z,1383.75
2023-01-07T10:00:39.233Z,1383.75
2023-01-07T10:01:39.264Z,1316.25
2023-01-07T10:02:39.252Z,1271.25
2023-01-07T10:03:39.300Z,1327.50
2023-01-07T10:04:39.202Z,1344.38
2023-01-07T10:05:39.182Z,1361.25
2023-01-07T10:06:43.861Z,1518.75
2023-01-07T10:07:40.179Z,1580.62
2023-01-07T10:08:39.172Z,1496.25
2023-01-07T10:09:39.148Z,1389.38
2023-01-07T10:10:39.136Z,1265.62
2023-01-07T10:11:39.118Z,1395.00
2023-01-07T10:12:39.102Z,1383.75
2023-01-07T10:13:39.116Z,1372.50
2023-01-07T10:14:39.181Z,1445.62
2023-01-07T10:15:39.188Z,1462.50
2023-01-07T10:16:39.122Z,1389.38
2023-01-07T10:17:39.057Z,1366.88
2023-01-07T10:18:39.038Z,1378.12
2023-01-07T10:19:39.053Z,1361.25
2023-01-07T10:20:39.028Z,1327.50
2023-01-07T10:21:39.014Z,1411.88
2023-01-07T10:22:39.003Z,1485.00
2023-01-07T10:23:38.994Z,1428.75
2023-01-07T10:24:38.974Z,1417.50
2023-01-07T10:25:39.002Z,1400.62
2023-01-07T10:26:38.964Z,1389.38
2023-01-07T10:27:38.950Z,1451.25
2023-01-07T10:28:38.956Z,1417.50
2023-01-07T10:29:38.939Z,1321.88
2023-01-07T10:30:40.256Z,1310.62
2023-01-07T10:31:39.083Z,1355.62
2023-01-07T10:32:38.907Z,1355.62
2023-01-07T10:33:38.883Z,1333.12
2023-01-07T10:34:38.864Z,1372.50
2023-01-07T10:35:38.857Z,1395.00
2023-01-07T10:36:38.852Z,1434.38
2023-01-07T10:37:38.834Z,1451.25
2023-01-07T10:38:38.828Z,1361.25
2023-01-07T10:39:38.816Z,1361.25
2023-01-07T10:40:38.803Z,1344.38
2023-01-07T10:41:38.792Z,1231.88
2023-01-07T10:42:38.811Z,1288.12
2023-01-07T10:43:38.766Z,1389.38
2023-01-07T10:44:38.754Z,1395.00
2023-01-07T10:45:38.795Z,1383.75
2023-01-07T10:46:38.729Z,1333.12
2023-01-07T10:47:38.833Z,1305.00
2023-01-07T10:48:38.737Z,1344.38
2023-01-07T10:49:38.702Z,1299.38
2023-01-07T10:50:38.714Z,1265.62
2023-01-07T10:51:38.701Z,1305.00
2023-01-07T10:52:38.668Z,1333.12
2023-01-07T10:53:38.661Z,1333.12
2023-01-07T10:54:38.655Z,1305.00
2023-01-07T10:55:38.635Z,1383.75
2023-01-07T10:56:38.623Z,1546.88
2023-01-07T10:57:38.631Z,1659.38
2023-01-07T10:58:38.601Z,1665.00
2023-01-07T10:59:38.593Z,1462.50
2023-01-07T11:00:38.591Z,1378.12
2023-01-07T11:01:38.782Z,1456.88
2023-01-07T11:02:38.567Z,1541.25
2023-01-07T11:03:38.676Z,1636.88
2023-01-07T11:04:38.548Z,1631.25
2023-01-07T11:05:38.537Z,1552.50
2023-01-07T11:06:38.531Z,1501.88
2023-01-07T11:07:38.510Z,1524.38
2023-01-07T11:08:38.503Z,1518.75
2023-01-07T11:09:38.491Z,1490.62
2023-01-07T11:10:38.477Z,1490.62
2023-01-07T11:11:38.461Z,1395.00
2023-01-07T11:12:38.477Z,1288.12
2023-01-07T11:13:38.461Z,1170.00
2023-01-07T11:14:38.429Z,1378.12
2023-01-07T11:15:38.436Z,1372.50
2023-01-07T11:16:38.516Z,1338.75
2023-01-07T11:17:38.397Z,984.38
2023-01-07T11:18:38.410Z,1378.12
2023-01-07T11:19:38.502Z,1355.62
2023-01-07T11:20:38.367Z,1462.50
2023-01-07T11:21:42.540Z,1350.00
2023-01-07T11:22:39.346Z,1535.62
2023-01-07T11:23:38.326Z,1456.88
2023-01-07T11:24:38.348Z,1428.75
2023-01-07T11:25:38.311Z,1395.00
2023-01-07T11:26:38.300Z,1361.25
2023-01-07T11:27:38.303Z,1366.88
2023-01-07T11:28:38.280Z,1350.00
2023-01-07T11:29:38.268Z,1321.88
2023-01-07T11:30:38.276Z,1299.38
2023-01-07T11:31:38.330Z,1293.75
2023-01-07T11:32:38.243Z,1271.25
2023-01-07T11:34:01.350Z,1310.62
2023-01-07T11:34:39.217Z,1406.25
2023-01-07T11:35:38.302Z,1395.00
2023-01-07T11:36:38.212Z,1479.38
2023-01-07T11:37:38.202Z,1603.12
2023-01-07T11:38:38.183Z,1501.88
2023-01-07T11:39:38.164Z,1462.50
2023-01-07T11:40:38.147Z,1518.75
2023-01-07T11:41:38.138Z,1535.62
2023-01-07T11:42:38.147Z,1513.12
2023-01-07T11:43:38.120Z,1501.88
2023-01-07T11:44:38.099Z,1507.50
2023-01-07T11:45:38.177Z,1507.50
2023-01-07T11:46:38.114Z,1479.38
2023-01-07T11:47:38.074Z,1445.62
2023-01-07T11:48:38.086Z,1423.12
2023-01-07T11:49:38.042Z,1428.75
2023-01-07T11:50:38.058Z,1428.75
2023-01-07T11:51:38.131Z,1423.12
2023-01-07T11:52:38.015Z,1366.88
2023-01-07T11:53:38.020Z,1344.38
2023-01-07T11:54:38.023Z,1350.00
2023-01-07T11:55:37.987Z,1327.50
2023-01-07T11:56:37.973Z,1383.75
2023-01-07T11:57:37.958Z,1468.12
2023-01-07T11:58:37.958Z,1417.50
2023-01-07T11:59:37.950Z,1372.50
2023-01-07T12:00:37.942Z,1411.88
2023-01-07T12:01:37.921Z,1417.50
2023-01-07T12:02:38.011Z,1395.00
2023-01-07T12:03:38.035Z,1406.25
2023-01-07T12:04:37.887Z,1383.75
2023-01-07T12:05:37.879Z,1350.00
2023-01-07T12:06:37.899Z,1299.38
2023-01-07T12:07:37.959Z,1310.62
2023-01-07T12:08:37.861Z,1333.12
2023-01-07T12:09:37.840Z,1344.38
2023-01-07T12:10:37.824Z,1355.62
2023-01-07T12:11:37.806Z,1378.12
2023-01-07T12:12:37.812Z,1383.75
2023-01-07T12:13:37.892Z,1310.62
2023-01-07T12:14:37.777Z,1327.50
2023-01-07T12:15:37.761Z,1282.50
2023-01-07T12:16:37.875Z,1288.12
2023-01-07T12:17:37.738Z,1321.88
2023-01-07T12:18:37.747Z,1355.62
2023-01-07T12:19:38.565Z,1299.38
2023-01-07T12:20:37.713Z,1226.25
2023-01-07T12:21:37.699Z,1265.62
2023-01-07T12:22:37.688Z,1271.25
2023-01-07T12:23:37.853Z,1220.62
2023-01-07T12:24:37.684Z,1237.50
2023-01-07T12:25:37.663Z,1254.38
2023-01-07T12:26:37.646Z,1327.50
2023-01-07T12:27:37.632Z,1316.25
2023-01-07T12:28:37.625Z,1254.38
2023-01-07T12:29:37.661Z,1226.25
2023-01-07T12:30:37.615Z,1198.12
2023-01-07T12:31:37.697Z,1141.88
2023-01-07T12:32:37.581Z,1113.75
2023-01-07T12:33:37.566Z,1147.50
2023-01-07T12:34:37.559Z,1164.38
2023-01-07T12:35:37.555Z,1119.38
2023-01-07T12:36:37.600Z,1108.12
2023-01-07T12:37:38.085Z,1237.50
2023-01-07T12:38:37.519Z,1265.62
2023-01-07T12:39:37.632Z,1243.12
2023-01-07T12:40:37.496Z,1186.88
2023-01-07T12:41:37.487Z,1158.75
2023-01-07T12:42:37.505Z,1153.12
2023-01-07T12:43:37.468Z,1175.62
2023-01-07T12:44:37.454Z,1186.88
2023-01-07T12:45:37.438Z,1198.12
2023-01-07T12:46:37.533Z,1175.62
2023-01-07T12:47:37.439Z,1108.12
2023-01-07T12:48:37.432Z,1063.12
2023-01-07T12:49:37.399Z,1040.62
2023-01-07T12:50:38.083Z,1040.62